Time;durP1;ratioP1;P1;durP2;ratioP2;P2;SDS_P1;SDS_P2;PMS_P1;PMS_P2;Temp;Humidity;BMP_temperature;BMP_pressure;BME280_temperature;BME280_humidity;BME280_pressure;Samples;Min_cycle;Max_cycle;Signal;HPM_P1;HPM_P2
2021/03/27 00:02:25;;;;;;;2.13;2.03;;;;;;;-1.66;69.92;94248.31;5028152;28;20075;-51
2021/03/27 00:04:52;;;;;;;1.88;1.77;;;;;;;-1.57;69.24;94242.91;5031314;28;20099;-49
2021/03/27 00:07:21;;;;;;;0.22;0.22;;;;;;;-1.62;68.82;94242.75;5048324;28;20497;-51
2021/03/27 00:09:56;;;;;;;1.27;1.25;;;;;;;-1.40;68.48;94250.72;5046659;28;20573;-48
2021/03/27 00:12:40;;;;;;;1.13;1.13;;;;;;;-1.30;68.31;94249.53;5047660;28;20543;-49
2021/03/27 00:15:17;;;;;;;3.20;1.50;;;;;;;-1.25;68.30;94249.66;5047312;28;20073;-51
2021/03/27 00:18:12;;;;;;;3.70;3.35;;;;;;;-1.65;68.88;94247.13;5046557;28;20120;-48
2021/03/27 00:21:29;;;;;;;4.55;2.78;;;;;;;-1.92;70.92;94240.91;5046487;28;20521;-51
2021/03/27 00:23:59;;;;;;;0.73;0.73;;;;;;;-1.94;71.24;94235.97;5081082;28;20041;-50
2021/03/27 00:26:30;;;;;;;2.50;1.58;;;;;;;-1.77;70.13;94237.19;5046569;28;20088;-51
2021/03/27 00:29:00;;;;;;;1.38;1.27;;;;;;;-1.61;69.49;94244.25;5046609;28;20056;-52
2021/03/27 00:31:31;;;;;;;1.25;0.80;;;;;;;-1.50;68.96;94243.81;5046411;28;20409;-50
2021/03/27 00:34:13;;;;;;;0.98;0.98;;;;;;;-1.71;68.29;94232.66;5046429;28;20412;-51
2021/03/27 00:36:43;;;;;;;1.90;1.80;;;;;;;-1.75;68.36;94245.59;5047637;28;20024;-51
2021/03/27 00:39:20;;;;;;;1.60;1.52;;;;;;;-2.07;69.17;94242.69;5035217;28;20162;-50
2021/03/27 00:41:51;;;;;;;0.75;0.75;;;;;;;-2.09;70.59;94245.88;5026444;28;20093;-53
2021/03/27 00:44:18;;;;;;;2.58;2.30;;;;;;;-2.12;70.45;94237.91;5029132;28;20033;-48
2021/03/27 00:46:44;;;;;;;1.05;1.02;;;;;;;-1.93;69.99;94237.47;5029160;28;20030;-47
2021/03/27 00:49:22;;;;;;;1.30;1.30;;;;;;;-2.11;70.10;94223.91;5030051;28;20425;-44
2021/03/27 00:52:15;;;;;;;1.38;1.23;;;;;;;-2.20;70.32;94237.41;5031015;28;20422;-47
2021/03/27 00:54:47;;;;;;;1.98;1.88;;;;;;;-2.14;69.32;94234.88;5013259;28;20470;-49
2021/03/27 00:57:21;;;;;;;1.35;1.30;;;;;;;-2.01;68.30;94230.06;5029305;28;20029;-47
2021/03/27 01:00:05;;;;;;;0.50;0.50;;;;;;;-2.24;68.70;94226.00;5029611;28;20053;-47
2021/03/27 01:02:31;;;;;;;0.57;0.57;;;;;;;-2.40;69.89;94213.47;5029803;28;20073;-48
2021/03/27 01:04:58;;;;;;;1.42;1.42;;;;;;;-2.27;69.30;94207.22;5029284;28;20026;-50
2021/03/27 01:07:24;;;;;;;0.50;0.50;;;;;;;-2.16;68.87;94213.69;5030969;28;20033;-51
2021/03/27 01:09:51;;;;;;;0.57;0.57;;;;;;;-2.20;68.84;94228.53;5029437;28;20039;-48
2021/03/27 01:12:37;;;;;;;0.93;0.90;;;;;;;-2.48;69.38;94190.63;5029365;28;20528;-50
2021/03/27 01:15:14;;;;;;;2.45;2.35;;;;;;;-2.39;70.06;94225.81;5029801;28;20033;-47
2021/03/27 01:17:45;;;;;;;1.23;0.90;;;;;;;-2.44;70.06;94225.63;5029682;28;20039;-49
2021/03/27 01:20:16;;;;;;;1.25;1.25;;;;;;;-2.21;70.02;94230.53;5029855;28;20026;-50
2021/03/27 01:22:43;;;;;;;2.45;2.35;;;;;;;-2.41;69.72;94230.91;5028997;28;20033;-46
2021/03/27 01:25:09;;;;;;;5.38;4.97;;;;;;;-2.39;69.85;94203.44;5028637;28;20029;-50
2021/03/27 01:27:57;;;;;;;5.65;5.15;;;;;;;-2.16;68.58;94232.63;5029142;28;20041;-48
2021/03/27 01:30:47;;;;;;;4.93;2.43;;;;;;;-2.39;69.23;94225.81;5030526;28;20040;-49
2021/03/27 01:33:30;;;;;;;1.77;1.77;;;;;;;-2.36;68.41;94229.59;5030451;28;20025;-52
2021/03/27 01:36:10;;;;;;;0.30;0.30;;;;;;;-2.71;68.29;94199.28;5030594;28;20029;-50
2021/03/27 01:38:54;;;;;;;0.93;0.93;;;;;;;-2.60;68.47;94223.19;5029095;28;20034;-50
2021/03/27 01:41:38;;;;;;;1.52;1.45;;;;;;;-2.43;67.86;94227.16;5030195;28;20081;-57
2021/03/27 01:44:07;;;;;;;1.55;1.45;;;;;;;-2.62;68.14;94228.28;5030250;28;20030;-50
2021/03/27 01:46:58;;;;;;;0.93;0.93;;;;;;;-2.72;69.38;94229.44;5039196;28;20115;-52
2021/03/27 01:49:53;;;;;;;1.42;1.33;;;;;;;-2.55;69.20;94236.09;5050091;28;20037;-53
2021/03/27 01:52:50;;;;;;;0.57;0.57;;;;;;;-2.91;69.66;94235.97;5048780;28;20100;-50
2021/03/27 01:55:30;;;;;;;2.08;1.98;;;;;;;-2.93;70.49;94236.41;5049566;28;20033;-52
2021/03/27 01:58:22;;;;;;;1.05;1.05;;;;;;;-2.74;69.47;94232.59;5048553;28;20149;-53
2021/03/27 02:00:54;;;;;;;1.40;1.40;;;;;;;-2.77;69.48;94228.06;5048236;28;20106;-52
2021/03/27 02:03:24;;;;;;;2.53;2.33;;;;;;;-2.88;68.95;94208.06;5049731;28;20033;-52
2021/03/27 02:05:58;;;;;;;1.40;1.40;;;;;;;-2.64;68.47;94241.50;5035916;28;20456;-50
2021/03/27 02:08:27;;;;;;;1.75;0.85;;;;;;;-2.68;68.87;94238.16;5030113;28;20475;-53
2021/03/27 02:11:17;;;;;;;0.52;0.35;;;;;;;-2.92;69.76;94246.00;5029965;28;20467;-52
2021/03/27 02:14:24;;;;;;;1.55;1.45;;;;;;;-2.74;69.28;94242.66;5028672;28;20098;-46
2021/03/27 02:17:05;;;;;;;1.17;1.17;;;;;;;-3.00;69.70;94249.41;4968922;28;20034;-55
2021/03/27 02:19:48;;;;;;;2.17;2.08;;;;;;;-3.11;70.30;94242.47;5025610;28;20045;-49
2021/03/27 02:22:23;;;;;;;1.42;1.42;;;;;;;-2.97;70.84;94248.53;5029793;28;20470;-50
2021/03/27 02:25:20;;;;;;;1.25;1.25;;;;;;;-3.13;70.29;94249.50;5028643;28;20033;-49
2021/03/27 02:28:01;;;;;;;1.80;1.70;;;;;;;-3.08;69.70;94249.69;4977077;28;20456;-51
2021/03/27 02:30:34;;;;;;;1.23;1.23;;;;;;;-3.17;69.47;94255.03;5029523;28;20037;-51
2021/03/27 02:33:21;;;;;;;1.17;1.13;;;;;;;-3.02;68.59;94254.50;5028263;28;20124;-52
2021/03/27 02:35:52;;;;;;;0.50;0.50;;;;;;;-3.05;68.03;94248.03;5028194;28;20045;-52
2021/03/27 02:38:26;;;;;;;6.43;1.02;;;;;;;-3.08;68.94;94248.94;5029485;28;20033;-53
2021/03/27 02:41:18;;;;;;;0.93;0.93;;;;;;;-2.94;68.83;94245.69;5028220;28;20436;-49
2021/03/27 02:43:52;;;;;;;1.30;1.30;;;;;;;-3.36;69.75;94234.53;5032618;28;20458;-50
2021/03/27 02:46:46;;;;;;;1.88;1.77;;;;;;;-3.07;69.25;94255.84;5028293;28;20055;-51
2021/03/27 02:49:24;;;;;;;1.25;1.25;;;;;;;-3.19;69.05;94252.03;5029383;28;20033;-52
2021/03/27 02:51:52;;;;;;;2.60;2.08;;;;;;;-3.23;69.40;94250.66;5029098;28;20063;-49
2021/03/27 02:54:32;;;;;;;0.20;0.20;;;;;;;-3.31;69.38;94263.63;5029298;28;20394;-52
2021/03/27 02:57:23;;;;;;;0.55;0.55;;;;;;;-3.11;70.75;94264.06;5029248;28;20041;-47
2021/03/27 02:59:57;;;;;;;0.50;0.50;;;;;;;-3.13;71.26;94254.91;5028895;28;20057;-46
2021/03/27 03:02:30;;;;;;;0.52;0.50;;;;;;;-3.07;70.97;94253.91;5029159;28;20492;-44
2021/03/27 03:05:14;;;;;;;0.75;0.75;;;;;;;-2.96;70.65;94264.31;5028890;28;20049;-47
2021/03/27 03:07:42;;;;;;;1.25;1.17;;;;;;;-2.90;69.70;94261.78;5027627;28;20036;-46
2021/03/27 03:10:29;;;;;;;3.90;1.23;;;;;;;-3.14;69.74;94256.13;5028912;28;20037;-45
2021/03/27 03:12:54;;;;;;;2.28;2.17;;;;;;;-3.41;70.55;94267.47;5032464;28;20041;-45
2021/03/27 03:15:40;;;;;;;5.72;4.15;;;;;;;-3.14;69.43;94259.53;5048827;28;20035;-46
2021/03/27 03:18:14;;;;;;;1.85;1.75;;;;;;;-3.07;68.69;94262.00;5043843;28;20036;-46
2021/03/27 03:20:50;;;;;;;2.10;2.00;;;;;;;-3.32;69.58;94270.25;5048764;28;20060;-45
2021/03/27 03:24:06;;;;;;;1.08;1.08;;;;;;;-3.38;69.91;94266.59;5047541;28;20056;-45
2021/03/27 03:26:41;;;;;;;2.70;2.53;;;;;;;-3.34;69.57;94267.22;5059822;28;20036;-46
2021/03/27 03:29:40;;;;;;;2.22;2.03;;;;;;;-3.45;69.52;94258.75;5048502;28;20039;-49
2021/03/27 03:32:09;;;;;;;1.33;1.33;;;;;;;-3.50;69.15;94266.66;5048328;28;20037;-47
2021/03/27 03:35:12;;;;;;;0.57;0.57;;;;;;;-3.39;68.29;94272.44;5048427;28;20041;-47
2021/03/27 03:37:56;;;;;;;1.45;1.42;;;;;;;-3.36;67.48;94274.25;5039038;28;20056;-51
2021/03/27 03:40:48;;;;;;;0.60;0.60;;;;;;;-3.47;67.67;94281.97;5040590;28;20021;-47
2021/03/27 03:43:38;;;;;;;1.55;1.48;;;;;;;-3.53;67.38;94275.63;5048523;28;20576;-48
2021/03/27 03:46:10;;;;;;;0.30;0.30;;;;;;;-3.42;67.03;94286.81;5047340;28;20507;-48
2021/03/27 03:48:54;;;;;;;0.40;0.40;;;;;;;-3.63;67.85;94282.91;5048318;28;20093;-52
2021/03/27 03:51:45;;;;;;;0.20;0.20;;;;;;;-3.79;67.90;94266.88;5048445;28;20055;-53
2021/03/27 03:54:34;;;;;;;0.50;0.50;;;;;;;-3.51;67.61;94279.38;5048355;28;20104;-48
2021/03/27 03:57:10;;;;;;;0.45;0.45;;;;;;;-3.90;68.58;94280.69;5047106;28;20737;-50
2021/03/27 03:59:52;;;;;;;0.40;0.40;;;;;;;-4.21;71.00;94285.22;5046691;28;20056;-51
2021/03/27 04:02:34;;;;;;;2.35;2.15;;;;;;;-3.95;70.87;94285.91;5046819;28;20045;-50
2021/03/27 04:05:22;;;;;;;0.32;0.32;;;;;;;-3.79;69.65;94291.16;5040957;28;20077;-47
2021/03/27 04:07:56;;;;;;;1.33;1.23;;;;;;;-3.90;70.10;94293.47;5026970;28;20031;-46
2021/03/27 04:10:25;;;;;;;1.10;1.10;;;;;;;-3.85;69.04;94290.19;5027027;28;20063;-47
2021/03/27 04:12:51;;;;;;;;;;;;;;;-3.76;68.55;94292.97;5028406;28;20026;-48
2021/03/27 04:15:24;;;;;;;0.40;0.40;;;;;;;-3.87;68.67;94296.03;5046070;28;20293;-48
2021/03/27 04:17:54;;;;;;;0.50;0.50;;;;;;;-3.86;68.44;94292.16;5046438;28;20064;-51
2021/03/27 04:20:32;;;;;;;0.35;0.35;;;;;;;-3.85;68.33;94301.75;5046741;28;20032;-50
2021/03/27 04:23:11;;;;;;;0.35;0.35;;;;;;;-4.19;69.55;94287.47;5047862;28;20021;-48
2021/03/27 04:25:41;;;;;;;1.63;1.60;;;;;;;-4.05;70.42;94306.63;5046346;28;20031;-48
2021/03/27 04:28:17;;;;;;;0.93;0.93;;;;;;;-4.00;70.63;94281.81;5047692;28;20053;-49
2021/03/27 04:31:00;;;;;;;0.75;0.75;;;;;;;-3.75;70.38;94305.28;5047739;28;20119;-47
2021/03/27 04:33:46;;;;;;;3.83;3.53;;;;;;;-3.98;69.08;94301.00;5047538;28;20032;-49
2021/03/27 04:36:18;;;;;;;4.40;3.83;;;;;;;-4.06;69.07;94307.06;5047947;28;20029;-48
2021/03/27 04:39:07;;;;;;;4.63;4.05;;;;;;;-4.14;70.26;94314.66;5038671;28;20025;-51
2021/03/27 04:41:51;;;;;;;4.90;4.45;;;;;;;-3.97;69.21;94307.16;5047649;28;20395;-49
2021/03/27 04:44:21;;;;;;;1.85;1.75;;;;;;;-3.81;68.74;94309.69;5047461;28;20024;-51
2021/03/27 04:46:52;;;;;;;2.63;2.42;;;;;;;-3.79;68.89;94317.38;5046311;28;20029;-50
2021/03/27 04:49:45;;;;;;;1.17;0.93;;;;;;;-3.86;68.21;94319.13;5046260;28;20021;-48
2021/03/27 04:52:17;;;;;;;2.70;2.15;;;;;;;-3.76;67.38;94317.25;5047432;28;20036;-49
2021/03/27 04:55:14;;;;;;;0.77;0.47;;;;;;;-3.79;67.48;94309.28;5047525;28;20021;-49
2021/03/27 04:58:06;;;;;;;0.75;0.75;;;;;;;-3.67;67.29;94328.13;5045951;28;20036;-48
2021/03/27 05:00:44;;;;;;;0.93;0.93;;;;;;;-3.66;67.09;94328.91;5047354;28;20098;-47
2021/03/27 05:03:28;;;;;;;1.80;1.75;;;;;;;-3.67;67.34;94330.84;5046057;28;20033;-46
2021/03/27 05:05:53;;;;;;;1.58;1.48;;;;;;;-3.58;68.62;94328.22;5033749;28;20029;-47
2021/03/27 05:08:58;;;;;;;0.82;0.82;;;;;;;-3.67;68.09;94327.38;5027385;28;20041;-48
2021/03/27 05:11:37;;;;;;;2.95;2.67;;;;;;;-3.47;67.85;94328.63;5004275;28;20041;-50
2021/03/27 05:14:15;;;;;;;2.55;2.45;;;;;;;-3.63;68.81;94333.41;5026061;28;20112;-48
2021/03/27 05:16:46;;;;;;;0.50;0.50;;;;;;;-3.58;69.39;94335.56;5027224;28;20525;-47
2021/03/27 05:19:36;;;;;;;0.73;0.73;;;;;;;-3.19;70.08;94330.34;5026137;28;20098;-49
2021/03/27 05:22:17;;;;;;;3.25;2.97;;;;;;;-2.90;69.19;94330.06;5027193;28;20021;-49
2021/03/27 05:24:58;;;;;;;3.63;3.38;;;;;;;-2.66;68.02;94330.34;5026048;28;20106;-49
2021/03/27 05:27:39;;;;;;;3.10;2.90;;;;;;;-2.89;67.95;94330.84;5027204;28;20025;-50
2021/03/27 05:30:14;;;;;;;1.30;1.20;;;;;;;-2.78;67.37;94331.22;5029292;28;20063;-51
2021/03/27 05:32:49;;;;;;;2.60;2.50;;;;;;;-2.65;68.01;94329.19;5030559;28;20030;-51
2021/03/27 05:35:17;;;;;;;2.30;2.15;;;;;;;-2.34;67.68;94336.09;5030379;28;20029;-49
2021/03/27 05:38:12;;;;;;;2.67;2.50;;;;;;;-1.94;67.56;94335.31;5029466;28;20025;-50
2021/03/27 05:41:07;;;;;;;6.88;6.28;;;;;;;-1.41;65.88;94333.94;5027319;28;20035;-56
2021/03/27 05:43:38;;;;;;;2.38;2.20;;;;;;;-1.18;66.06;94330.63;5030494;28;20068;-57
2021/03/27 05:46:33;;;;;;;7.72;3.30;;;;;;;-1.04;66.91;94332.72;5030262;28;20036;-55
2021/03/27 05:49:27;;;;;;;3.50;3.25;;;;;;;-0.78;65.96;94335.88;5029110;28;20100;-55
2021/03/27 05:52:29;;;;;;;2.30;2.17;;;;;;;-0.04;64.37;94335.22;5030198;28;20036;-59
2021/03/27 05:55:13;;;;;;;1.02;1.02;;;;;;;0.56;62.27;94337.78;5030153;28;20557;-59
2021/03/27 05:57:57;;;;;;;1.98;1.85;;;;;;;1.24;60.10;94333.16;5029970;28;20091;-58
2021/03/27 06:00:43;;;;;;;4.00;3.70;;;;;;;1.70;57.84;94333.47;5030005;28;20112;-59
2021/03/27 06:03:36;;;;;;;3.92;3.30;;;;;;;2.15;56.63;94335.66;5030121;28;20052;-58
2021/03/27 06:06:29;;;;;;;2.42;2.22;;;;;;;2.76;56.00;94326.38;5044172;28;20025;-58
2021/03/27 06:09:20;;;;;;;3.08;2.88;;;;;;;3.42;54.89;94336.53;5049812;28;20040;-58
2021/03/27 06:12:02;;;;;;;5.45;5.03;;;;;;;3.74;53.50;94330.66;5049801;28;20037;-58
2021/03/27 06:14:58;;;;;;;4.40;4.10;;;;;;;4.27;53.30;94335.53;5049680;28;20068;-59
2021/03/27 06:17:33;;;;;;;4.97;2.60;;;;;;;5.14;51.29;94333.03;5045461;28;20025;-59
2021/03/27 06:20:04;;;;;;;2.30;2.20;;;;;;;6.04;48.58;94327.28;5049054;28;20100;-59
2021/03/27 06:22:36;;;;;;;3.83;3.50;;;;;;;6.90;46.67;94334.41;5049593;28;20051;-59
2021/03/27 06:25:11;;;;;;;1.77;1.67;;;;;;;7.97;44.17;94336.16;5049249;28;20036;-59
2021/03/27 06:28:00;;;;;;;2.75;2.55;;;;;;;8.71;42.82;94338.56;5049509;28;20024;-59
2021/03/27 06:30:34;;;;;;;8.80;8.00;;;;;;;9.44;41.02;94323.47;5049406;28;20138;-59
2021/03/27 06:33:13;;;;;;;16.52;8.30;;;;;;;10.05;38.41;94338.47;5049041;28;20029;-57
2021/03/27 06:35:52;;;;;;;14.75;7.85;;;;;;;10.41;38.18;94320.38;5049533;28;20425;-48
2021/03/27 06:38:17;;;;;;;;;;;;;;;10.97;36.49;94334.72;5048639;28;20098;-53
2021/03/27 06:41:07;;;;;;;6.00;4.93;;;;;;;12.02;34.99;94331.84;5048075;28;19913;-49
2021/03/27 06:43:56;;;;;;;9.23;7.90;;;;;;;13.42;33.39;94333.44;5043583;28;20275;-48
2021/03/27 06:46:25;;;;;;;;;;;;;;;14.32;31.29;94330.31;5039265;28;20064;-51
2021/03/27 06:49:18;;;;;;;3.95;3.67;;;;;;;15.47;29.85;94324.97;5038518;28;19912;-48
2021/03/27 06:52:10;;;;;;;12.13;6.38;;;;;;;16.43;28.85;94329.25;5039823;28;20024;-54
2021/03/27 06:54:42;;;;;;;4.63;2.42;;;;;;;17.20;26.69;94334.50;5038531;28;20028;-52
2021/03/27 06:58:03;;;;;;;10.07;4.88;;;;;;;17.62;26.23;94333.75;5038052;28;20096;-48
2021/03/27 07:01:05;;;;;;;4.13;3.28;;;;;;;18.40;24.93;94328.19;5028551;28;20056;-48
2021/03/27 07:03:46;;;;;;;7.90;4.20;;;;;;;19.00;23.51;94330.13;5038216;28;20022;-45
2021/03/27 07:06:33;;;;;;;1.55;1.45;;;;;;;19.38;22.97;94332.34;5037081;28;20040;-46
2021/03/27 07:09:12;;;;;;;2.28;2.10;;;;;;;19.17;22.47;94321.66;5039269;28;20029;-45
2021/03/27 07:12:05;;;;;;;1.42;1.00;;;;;;;19.48;23.17;94339.47;5038890;28;20512;-45
2021/03/27 07:15:03;;;;;;;1.40;1.30;;;;;;;19.41;23.65;94339.56;5037828;28;20486;-46
2021/03/27 07:17:34;;;;;;;2.33;2.13;;;;;;;19.53;23.23;94335.63;5044136;28;20032;-45
2021/03/27 07:20:11;;;;;;;1.95;1.77;;;;;;;19.75;23.62;94330.22;5044332;28;20037;-46
2021/03/27 07:22:53;;;;;;;1.92;1.77;;;;;;;20.09;23.11;94327.88;5037348;28;20047;-47
2021/03/27 07:25:40;;;;;;;2.13;1.92;;;;;;;21.14;21.93;94336.09;5041972;28;20029;-45
2021/03/27 07:28:23;;;;;;;2.53;2.33;;;;;;;21.88;20.77;94329.19;5044817;28;20108;-46
2021/03/27 07:31:07;;;;;;;4.10;2.78;;;;;;;22.20;20.88;94327.75;5036033;28;20071;-46
2021/03/27 07:34:10;;;;;;;3.95;3.58;;;;;;;22.63;19.33;94329.16;5047757;28;20485;-46
2021/03/27 07:36:41;;;;;;;3.40;2.65;;;;;;;23.16;20.08;94340.88;5048850;28;20108;-53
2021/03/27 07:39:12;;;;;;;4.78;4.00;;;;;;;22.59;19.99;94339.41;5048462;28;20064;-48
2021/03/27 07:42:16;;;;;;;3.92;3.30;;;;;;;21.96;18.30;94337.41;5048708;28;20036;-48
2021/03/27 07:44:55;;;;;;;6.07;5.28;;;;;;;22.83;19.75;94332.50;5052321;28;20072;-54
2021/03/27 07:47:43;;;;;;;8.90;6.82;;;;;;;22.58;19.72;94341.50;5046765;28;20036;-49
2021/03/27 07:50:20;;;;;;;6.38;5.85;;;;;;;22.91;20.26;94333.03;5047117;28;20394;-52
2021/03/27 07:53:17;;;;;;;5.10;4.35;;;;;;;23.51;18.90;94326.84;5029745;28;20033;-49
2021/03/27 07:55:48;;;;;;;4.60;3.50;;;;;;;23.32;19.42;94336.97;5048222;28;20465;-46
2021/03/27 07:58:32;;;;;;;2.85;1.88;;;;;;;23.65;18.01;94336.16;5048133;28;20052;-47
2021/03/27 08:01:13;;;;;;;1.45;1.35;;;;;;;24.50;16.59;94336.16;5048169;28;20029;-50
2021/03/27 08:04:16;;;;;;;2.15;1.58;;;;;;;24.30;16.49;94332.94;5048099;28;20040;-64
2021/03/27 08:06:57;;;;;;;2.25;2.05;;;;;;;21.76;18.38;94328.38;5045205;28;20485;-58
2021/03/27 08:09:41;;;;;;;1.98;1.77;;;;;;;22.49;18.68;94327.50;5043870;28;20039;-51
2021/03/27 08:12:24;;;;;;;3.80;2.25;;;;;;;23.58;18.99;94334.31;5047382;28;20033;-52
2021/03/27 08:15:27;;;;;;;1.15;1.15;;;;;;;24.83;18.03;94331.00;5033073;28;20039;-47
2021/03/27 08:18:09;;;;;;;1.70;1.60;;;;;;;24.99;16.24;94323.44;5032039;28;20025;-44
2021/03/27 08:20:34;;;;;;;1.25;0.88;;;;;;;23.38;15.89;94324.63;5042064;28;20112;-45
2021/03/27 08:23:06;;;;;;;2.30;2.10;;;;;;;24.53;18.58;94330.03;5047025;28;20082;-49
2021/03/27 08:26:01;;;;;;;1.35;1.25;;;;;;;25.32;17.92;94326.63;5046616;28;20029;-46
2021/03/27 08:28:39;;;;;;;1.80;1.67;;;;;;;26.32;16.11;94319.06;5045344;28;20085;-45
2021/03/27 08:31:34;;;;;;;1.42;1.33;;;;;;;26.57;17.03;94326.66;5046472;28;20031;-47
2021/03/27 08:34:05;;;;;;;2.55;2.00;;;;;;;26.71;15.98;94330.88;5041725;28;20034;-47
2021/03/27 08:37:07;;;;;;;2.15;1.95;;;;;;;26.91;16.38;94325.47;5034839;28;20036;-47
2021/03/27 08:39:51;;;;;;;5.07;2.13;;;;;;;26.50;16.69;94330.56;5029352;28;20048;-46
2021/03/27 08:42:31;;;;;;;2.72;1.98;;;;;;;26.95;16.51;94326.41;5035864;28;20021;-45
2021/03/27 08:45:21;;;;;;;1.52;1.42;;;;;;;27.33;14.07;94324.59;5036143;28;20029;-48
2021/03/27 08:48:11;;;;;;;1.13;1.08;;;;;;;27.42;13.32;94328.56;5034392;28;20032;-45
2021/03/27 08:50:54;;;;;;;2.13;0.90;;;;;;;27.34;14.53;94322.50;5026372;28;20025;-49
2021/03/27 08:53:38;;;;;;;1.48;1.38;;;;;;;27.17;14.82;94323.13;5024347;28;20021;-50
2021/03/27 08:56:15;;;;;;;3.25;2.35;;;;;;;27.18;13.57;94322.50;5026447;28;20036;-51
2021/03/27 08:58:55;;;;;;;1.30;1.20;;;;;;;27.16;13.62;94328.06;5025922;28;20132;-48
2021/03/27 09:01:34;;;;;;;2.67;1.67;;;;;;;26.53;16.25;94332.84;5039913;28;20691;-53
2021/03/27 09:04:31;;;;;;;3.15;1.50;;;;;;;27.01;14.88;94326.69;5045826;28;20039;-47
2021/03/27 09:07:14;;;;;;;2.45;2.25;;;;;;;27.16;15.35;94321.69;5029879;28;20138;-49
2021/03/27 09:09:46;;;;;;;1.90;1.33;;;;;;;27.76;14.27;94327.28;5029843;28;20036;-55
2021/03/27 09:12:42;;;;;;;1.30;1.20;;;;;;;27.81;14.35;94326.06;5038445;28;20463;-51
2021/03/27 09:15:23;;;;;;;1.00;0.98;;;;;;;27.88;13.70;94318.53;5038723;28;20108;-51
2021/03/27 09:18:00;;;;;;;1.73;1.63;;;;;;;28.17;14.76;94319.16;5038594;28;20021;-55
2021/03/27 09:20:41;;;;;;;1.50;1.40;;;;;;;27.87;14.56;94320.66;5036735;28;20036;-49
2021/03/27 09:23:38;;;;;;;1.95;1.02;;;;;;;27.67;15.10;94312.00;5027894;28;20078;-55
2021/03/27 09:26:28;;;;;;;0.40;0.40;;;;;;;27.94;14.91;94316.00;5026644;28;20033;-54
2021/03/27 09:29:09;;;;;;;0.88;0.88;;;;;;;27.56;15.61;94312.94;5028877;28;20025;-51
2021/03/27 09:31:44;;;;;;;1.38;1.27;;;;;;;27.71;14.67;94317.13;5028366;28;20412;-56
2021/03/27 09:34:47;;;;;;;2.33;2.03;;;;;;;27.04;15.17;94319.75;5029415;28;20029;-48
2021/03/27 09:37:27;;;;;;;1.70;1.00;;;;;;;26.78;14.63;94318.50;5029261;28;20518;-53
2021/03/27 09:39:58;;;;;;;0.68;0.50;;;;;;;26.96;14.84;94315.81;5028173;28;20033;-50
2021/03/27 09:42:36;;;;;;;0.90;0.90;;;;;;;27.12;16.33;94313.72;5027924;28;20056;-47
2021/03/27 09:45:18;;;;;;;1.35;1.25;;;;;;;26.98;14.78;94313.06;5029380;28;20017;-49
2021/03/27 09:48:01;;;;;;;3.00;2.72;;;;;;;26.64;13.47;94314.25;5027893;28;20471;-50
2021/03/27 09:51:00;;;;;;;1.17;1.17;;;;;;;26.50;15.99;94314.28;5029067;28;20025;-53
2021/03/27 09:53:53;;;;;;;1.00;1.00;;;;;;;26.77;15.67;94317.03;5027823;28;20033;-49
2021/03/27 09:57:01;;;;;;;1.95;1.52;;;;;;;27.52;16.50;94312.00;5028952;28;20112;-50
2021/03/27 09:59:50;;;;;;;1.33;0.80;;;;;;;27.62;16.06;94313.19;5030768;28;20125;-48
2021/03/27 10:03:00;;;;;;;1.25;1.25;;;;;;;26.14;16.63;94315.34;5038597;28;20049;-47
2021/03/27 10:05:50;;;;;;;0.90;0.80;;;;;;;26.26;16.18;94316.69;5044881;28;20037;-49
2021/03/27 10:08:15;;;;;;;1.90;1.80;;;;;;;26.92;15.35;94310.66;5031385;28;20615;-46
2021/03/27 10:10:56;;;;;;;1.15;1.05;;;;;;;27.44;16.99;94311.66;5028746;28;20025;-52
2021/03/27 10:13:58;;;;;;;1.75;1.25;;;;;;;28.13;15.34;94316.13;5028747;28;20044;-50
2021/03/27 10:16:31;;;;;;;1.52;1.42;;;;;;;27.35;16.00;94301.28;5028458;28;20029;-48
2021/03/27 10:19:09;;;;;;;0.75;0.75;;;;;;;27.70;13.81;94307.88;5027378;28;20490;-50
2021/03/27 10:21:58;;;;;;;1.25;1.10;;;;;;;26.86;15.10;94312.47;5037683;28;20033;-48
2021/03/27 10:24:45;;;;;;;1.45;0.88;;;;;;;26.09;16.88;94310.84;5039387;28;20037;-48
2021/03/27 10:27:37;;;;;;;1.00;0.98;;;;;;;26.22;14.93;94301.59;5039620;28;20061;-50
2021/03/27 10:30:10;;;;;;;3.92;1.55;;;;;;;26.35;16.04;94312.13;5032368;28;20033;-49
2021/03/27 10:32:51;;;;;;;1.20;1.15;;;;;;;26.14;16.98;94316.06;5028479;28;20045;-47
2021/03/27 10:35:51;;;;;;;0.93;0.73;;;;;;;26.40;16.48;94315.91;5036769;28;20029;-47
2021/03/27 10:38:33;;;;;;;0.98;0.95;;;;;;;26.82;16.30;94306.63;5044333;28;20483;-47
2021/03/27 10:41:07;;;;;;;3.75;1.52;;;;;;;27.53;13.54;94310.63;5035304;28;20033;-51
2021/03/27 10:43:42;;;;;;;1.05;0.80;;;;;;;27.68;16.26;94313.44;5039282;28;20040;-48
2021/03/27 10:46:25;;;;;;;3.75;1.15;;;;;;;26.84;16.06;94309.56;5027435;28;20052;-53
2021/03/27 10:49:08;;;;;;;1.65;1.42;;;;;;;26.74;15.70;94317.59;5040251;28;20040;-51
2021/03/27 10:52:23;;;;;;;2.88;1.33;;;;;;;27.18;16.32;94299.09;5046782;28;20120;-48
2021/03/27 10:55:16;;;;;;;1.60;1.50;;;;;;;26.71;16.37;94299.72;5043174;28;20033;-49
2021/03/27 10:57:48;;;;;;;1.00;0.90;;;;;;;26.36;16.69;94307.94;5040721;28;20025;-51
2021/03/27 11:01:01;;;;;;;0.98;0.98;;;;;;;26.51;16.27;94298.75;5027122;28;20029;-51
2021/03/27 11:04:08;;;;;;;1.80;1.67;;;;;;;25.89;17.25;94295.63;5043359;28;20044;-51
2021/03/27 11:07:04;;;;;;;2.50;1.40;;;;;;;26.53;17.13;94298.84;5023031;28;20465;-54
2021/03/27 11:09:41;;;;;;;1.38;0.88;;;;;;;27.08;16.23;94285.19;5027787;28;20563;-56
2021/03/27 11:12:13;;;;;;;1.77;1.48;;;;;;;26.52;17.09;94288.91;5028351;28;20025;-48
2021/03/27 11:15:07;;;;;;;3.13;2.35;;;;;;;26.03;17.25;94282.91;5047254;28;20036;-52
2021/03/27 11:18:06;;;;;;;2.47;1.25;;;;;;;25.94;17.81;94286.00;5047635;28;20067;-46
2021/03/27 11:21:06;;;;;;;1.70;1.60;;;;;;;25.33;18.67;94288.53;5047432;28;20040;-45
2021/03/27 11:23:57;;;;;;;2.00;1.83;;;;;;;24.88;19.83;94287.50;5039227;28;20101;-46
2021/03/27 11:26:50;;;;;;;2.85;1.63;;;;;;;25.26;17.93;94286.72;5046856;28;20058;-47
2021/03/27 11:29:27;;;;;;;2.60;1.65;;;;;;;24.48;18.46;94282.41;5031707;28;20116;-47
2021/03/27 11:32:06;;;;;;;1.75;1.65;;;;;;;24.06;18.94;94280.78;5043591;28;20045;-46
2021/03/27 11:34:52;;;;;;;1.73;1.42;;;;;;;23.68;20.19;94284.91;5039858;28;20425;-52
2021/03/27 11:37:32;;;;;;;2.30;1.88;;;;;;;23.74;17.62;94282.41;5037066;28;20569;-51
2021/03/27 11:40:22;;;;;;;2.05;1.30;;;;;;;22.75;19.14;94278.53;5036809;28;20041;-48
2021/03/27 11:43:22;;;;;;;4.40;1.58;;;;;;;22.91;19.62;94281.59;5034880;28;20049;-53
2021/03/27 11:45:50;;;;;;;1.80;1.48;;;;;;;22.91;18.88;94281.59;5062761;28;20036;-59
2021/03/27 11:48:20;;;;;;;4.05;1.05;;;;;;;22.95;19.95;94282.59;5034609;28;20041;-52
2021/03/27 11:50:49;;;;;;;12.10;2.47;;;;;;;23.09;22.06;94275.00;5042782;28;20032;-50
2021/03/27 11:53:41;;;;;;;1.67;1.58;;;;;;;22.60;20.04;94262.84;5047199;28;20413;-50
2021/03/27 11:56:18;;;;;;;1.17;1.10;;;;;;;22.04;20.06;94276.09;5045795;28;20037;-48
2021/03/27 12:02:18;;;;;;;2.53;1.75;;;;;;;21.96;19.06;94267.13;5029739;28;20078;-47
2021/03/27 12:05:02;;;;;;;1.70;1.58;;;;;;;21.72;19.23;94268.34;5054019;28;20125;-53
2021/03/27 12:07:43;;;;;;;0.90;0.80;;;;;;;21.68;21.44;94262.44;5043841;28;20070;-47
2021/03/27 12:10:08;;;;;;;0.93;0.82;;;;;;;21.33;21.04;94264.31;5042726;28;20033;-52
2021/03/27 12:12:47;;;;;;;2.00;1.58;;;;;;;20.46;21.91;94261.13;5027341;28;20449;-56
2021/03/27 12:15:18;;;;;;;;;;;;;;;19.97;21.54;94270.91;5026950;28;20030;-58
2021/03/27 12:18:05;;;;;;;2.83;1.52;;;;;;;20.22;22.49;94268.56;5023961;28;19919;-49
2021/03/27 12:21:08;;;;;;;1.02;1.02;;;;;;;20.12;21.71;94262.19;5046630;28;20025;-52
2021/03/27 12:23:37;;;;;;;1.58;1.30;;;;;;;19.63;22.60;94248.78;5045124;28;20033;-53
2021/03/27 12:26:18;;;;;;;0.60;0.57;;;;;;;19.85;22.96;94252.47;5045389;28;20405;-52
2021/03/27 12:29:05;;;;;;;1.75;0.70;;;;;;;19.61;22.70;94251.44;5046833;28;20041;-50
2021/03/27 12:31:37;;;;;;;0.60;0.60;;;;;;;19.80;23.53;94248.66;5041298;28;20420;-49
2021/03/27 12:34:14;;;;;;;1.33;1.23;;;;;;;19.66;25.90;94242.75;5046056;28;20041;-49
2021/03/27 12:36:40;;;;;;;0.80;0.80;;;;;;;19.55;23.00;94243.34;5046287;28;20496;-50
2021/03/27 12:39:30;;;;;;;0.93;0.77;;;;;;;19.11;24.29;94251.22;5044711;28;20036;-48
2021/03/27 12:42:14;;;;;;;1.48;1.20;;;;;;;18.82;20.70;94247.59;5045954;28;20047;-48
2021/03/27 12:45:09;;;;;;;0.85;0.85;;;;;;;18.08;24.60;94250.91;5046056;28;20037;-50
2021/03/27 12:47:39;;;;;;;1.40;1.30;;;;;;;18.40;26.15;94247.09;5041760;28;20055;-52
2021/03/27 12:50:28;;;;;;;1.17;1.08;;;;;;;18.26;22.64;94243.22;5046017;28;20598;-50